Time;durP1;ratioP1;P1;durP2;ratioP2;P2;SDS_P1;SDS_P2;PMS_P1;PMS_P2;Temp;Humidity;BMP_temperature;BMP_pressure;BME280_temperature;BME280_humidity;BME280_pressure;Samples;Min_cycle;Max_cycle;Signal;HPM_P1;HPM_P2
2023/12/21 00:00:03;;;;;;;2.37;2.27;;;5.10;49.30;;;;;;5052567;28;20201;-64
2023/12/21 00:02:30;;;;;;;2.10;2.00;;;5.10;50.10;;;;;;5048478;28;20202;-64
2023/12/21 00:04:58;;;;;;;1.90;1.80;;;5.10;49.50;;;;;;5043668;28;20724;-63
2023/12/21 00:07:25;;;;;;;1.93;1.73;;;5.10;49.80;;;;;;5038912;28;20201;-64
2023/12/21 00:09:51;;;;;;;2.10;1.73;;;5.10;49.40;;;;;;5042194;28;20254;-64
2023/12/21 00:12:18;;;;;;;2.30;2.10;;;5.10;49.50;;;;;;5048837;28;20630;-64
2023/12/21 00:14:45;;;;;;;2.10;1.93;;;5.20;49.90;;;;;;5043217;28;20277;-64
2023/12/21 00:17:11;;;;;;;2.70;1.90;;;5.10;49.40;;;;;;5039781;28;20226;-64
2023/12/21 00:19:38;;;;;;;2.10;2.00;;;5.20;49.40;;;;;;5047559;28;20362;-64
2023/12/21 00:22:04;;;;;;;2.10;1.90;;;5.10;49.30;;;;;;5048108;28;20206;-64
2023/12/21 00:24:31;;;;;;;2.00;1.90;;;5.20;49.00;;;;;;5047210;28;20202;-64
2023/12/21 00:26:57;;;;;;;2.03;1.80;;;5.30;49.20;;;;;;5043430;28;20209;-64
2023/12/21 00:29:24;;;;;;;3.00;1.77;;;5.20;49.20;;;;;;5038690;28;20219;-64
2023/12/21 00:31:50;;;;;;;1.97;1.77;;;5.20;49.00;;;;;;5050505;28;20282;-63
2023/12/21 00:34:17;;;;;;;2.40;1.90;;;5.20;49.30;;;;;;5043595;28;20631;-63
2023/12/21 00:36:46;;;;;;;2.00;1.90;;;5.20;49.50;;;;;;5042078;28;20222;-63
2023/12/21 00:39:13;;;;;;;2.00;1.90;;;5.10;49.50;;;;;;5038995;28;20823;-63
2023/12/21 00:41:39;;;;;;;1.80;1.70;;;5.20;50.50;;;;;;5048863;28;20267;-62
2023/12/21 00:44:06;;;;;;;2.20;2.00;;;5.20;50.10;;;;;;5043701;28;20211;-63
2023/12/21 00:46:32;;;;;;;2.10;2.00;;;5.10;49.80;;;;;;5043174;28;20732;-63
2023/12/21 00:48:59;;;;;;;1.90;1.70;;;5.10;50.10;;;;;;5042789;28;20237;-64
2023/12/21 00:51:25;;;;;;;1.90;1.80;;;5.10;50.70;;;;;;5044047;28;20227;-63
2023/12/21 00:53:52;;;;;;;1.90;1.77;;;5.30;50.30;;;;;;5049490;28;20668;-63
2023/12/21 00:56:18;;;;;;;1.90;1.80;;;5.20;50.00;;;;;;5042974;28;20230;-64
2023/12/21 00:58:45;;;;;;;1.60;1.50;;;5.20;50.10;;;;;;5044812;28;20229;-64
2023/12/21 01:01:11;;;;;;;2.70;2.17;;;5.20;50.10;;;;;;5042997;28;20567;-64
2023/12/21 01:03:38;;;;;;;1.90;1.80;;;5.30;50.40;;;;;;5037217;28;20206;-62
2023/12/21 01:06:04;;;;;;;2.10;2.00;;;5.20;50.20;;;;;;5039338;28;20254;-63
2023/12/21 01:08:31;;;;;;;1.90;1.80;;;5.20;50.50;;;;;;5041463;28;20242;-62
2023/12/21 01:10:58;;;;;;;2.00;1.90;;;5.30;50.20;;;;;;5050915;28;20765;-62
2023/12/21 01:13:24;;;;;;;2.70;1.90;;;5.30;50.00;;;;;;5043441;28;20241;-63
2023/12/21 01:15:52;;;;;;;1.93;1.70;;;5.30;50.10;;;;;;5044443;28;20226;-63
2023/12/21 01:18:18;;;;;;;1.80;1.70;;;5.30;49.80;;;;;;5043550;28;20243;-62
2023/12/21 01:20:45;;;;;;;1.97;1.77;;;5.30;49.90;;;;;;5050438;28;20242;-61
2023/12/21 01:23:11;;;;;;;1.63;1.50;;;5.40;50.00;;;;;;5040187;28;20242;-62
2023/12/21 01:25:38;;;;;;;1.87;1.77;;;5.40;49.90;;;;;;5047010;28;20279;-63
2023/12/21 01:28:04;;;;;;;1.87;1.63;;;5.40;50.20;;;;;;5023926;28;20295;-63
2023/12/21 01:30:31;;;;;;;2.03;1.80;;;5.40;50.60;;;;;;5043200;28;20238;-63
2023/12/21 01:32:58;;;;;;;1.70;1.60;;;5.40;50.40;;;;;;5053308;28;20245;-62
2023/12/21 01:35:24;;;;;;;1.70;1.60;;;5.40;50.50;;;;;;5044135;28;20642;-63
2023/12/21 01:37:51;;;;;;;2.73;1.60;;;5.40;50.70;;;;;;5047066;28;20205;-62
2023/12/21 01:40:17;;;;;;;1.80;1.70;;;5.40;50.70;;;;;;5039333;28;20641;-65
2023/12/21 01:42:44;;;;;;;2.10;1.90;;;5.40;50.70;;;;;;5040607;28;20260;-63
2023/12/21 01:45:10;;;;;;;1.63;1.53;;;5.40;50.70;;;;;;5043434;28;20253;-63
2023/12/21 01:47:37;;;;;;;1.50;1.50;;;5.40;51.00;;;;;;5040615;28;20235;-63
2023/12/21 01:50:03;;;;;;;1.70;1.60;;;5.40;51.10;;;;;;5043582;28;20257;-63
2023/12/21 01:52:30;;;;;;;1.67;1.57;;;5.40;50.80;;;;;;5037881;28;20250;-63
2023/12/21 01:54:56;;;;;;;2.50;1.83;;;5.50;51.40;;;;;;5042318;28;20289;-62
2023/12/21 01:57:23;;;;;;;2.00;1.73;;;5.50;51.50;;;;;;5046291;28;20236;-63
2023/12/21 01:59:51;;;;;;;1.87;1.53;;;5.50;51.40;;;;;;5046555;28;20662;-63
2023/12/21 02:02:17;;;;;;;1.50;1.40;;;5.40;51.80;;;;;;5048684;28;20209;-63
2023/12/21 02:04:44;;;;;;;1.57;1.50;;;5.40;51.80;;;;;;5044396;28;20617;-63
2023/12/21 02:07:10;;;;;;;1.70;1.60;;;5.40;52.10;;;;;;5044176;28;20234;-63
2023/12/21 02:09:37;;;;;;;1.80;1.70;;;5.40;52.40;;;;;;5054096;28;20263;-63
2023/12/21 02:12:03;;;;;;;1.63;1.53;;;5.50;53.30;;;;;;5042616;28;20233;-63
2023/12/21 02:14:30;;;;;;;1.50;1.50;;;5.40;53.70;;;;;;5050300;28;20259;-63
2023/12/21 02:16:56;;;;;;;1.67;1.67;;;5.30;54.80;;;;;;5046104;28;20267;-63
2023/12/21 02:19:23;;;;;;;1.73;1.63;;;5.20;55.70;;;;;;5035382;28;20245;-63
2023/12/21 02:21:49;;;;;;;1.80;1.70;;;5.20;56.80;;;;;;5046415;28;20268;-63
2023/12/21 02:24:16;;;;;;;1.53;1.53;;;5.20;57.70;;;;;;5054182;28;20596;-62
2023/12/21 02:26:42;;;;;;;1.70;1.60;;;5.20;58.30;;;;;;5044233;28;20292;-63
2023/12/21 02:29:09;;;;;;;1.47;1.47;;;5.20;59.10;;;;;;5054659;28;20214;-63
2023/12/21 02:31:36;;;;;;;1.70;1.60;;;5.10;59.40;;;;;;5053608;28;20284;-63
2023/12/21 02:34:02;;;;;;;2.00;1.90;;;5.20;60.10;;;;;;5049327;28;20252;-63
2023/12/21 02:36:29;;;;;;;1.60;1.60;;;5.10;60.30;;;;;;5054212;28;20592;-63
2023/12/21 02:38:55;;;;;;;2.07;1.97;;;5.10;60.80;;;;;;5030167;28;20203;-63
2023/12/21 02:41:22;;;;;;;1.67;1.67;;;5.10;61.00;;;;;;5053304;28;20241;-63
2023/12/21 02:43:49;;;;;;;1.60;1.60;;;5.10;61.30;;;;;;5044210;28;20644;-63
2023/12/21 02:46:15;;;;;;;2.07;1.97;;;5.10;61.60;;;;;;5029858;28;20222;-63
2023/12/21 02:48:42;;;;;;;1.90;1.80;;;5.10;61.70;;;;;;5045930;28;20240;-63
2023/12/21 02:51:08;;;;;;;1.90;1.80;;;5.10;61.70;;;;;;5041629;28;20265;-63
2023/12/21 02:53:35;;;;;;;1.80;1.70;;;5.10;61.00;;;;;;5049501;28;20267;-63
2023/12/21 02:56:01;;;;;;;1.97;1.87;;;5.10;61.40;;;;;;5045579;28;20226;-63
2023/12/21 02:58:28;;;;;;;1.80;1.70;;;5.10;61.20;;;;;;5053834;28;20233;-63
2023/12/21 03:00:54;;;;;;;1.80;1.70;;;5.20;60.30;;;;;;5054023;28;20687;-63
2023/12/21 03:03:21;;;;;;;1.80;1.70;;;5.10;60.20;;;;;;5046221;28;20201;-63
2023/12/21 03:05:47;;;;;;;1.70;1.67;;;5.10;61.90;;;;;;5043198;28;20265;-63
2023/12/21 03:08:14;;;;;;;1.50;1.50;;;5.20;61.70;;;;;;5038499;28;20208;-62
2023/12/21 03:10:40;;;;;;;1.50;1.50;;;5.10;62.40;;;;;;5042065;28;20222;-63
2023/12/21 03:13:07;;;;;;;1.60;1.60;;;5.10;62.10;;;;;;5041930;28;20206;-64
2023/12/21 03:15:33;;;;;;;1.60;1.60;;;5.10;63.00;;;;;;5049643;28;20315;-65
2023/12/21 03:18:00;;;;;;;1.70;1.60;;;5.00;63.60;;;;;;5041110;28;20202;-64
2023/12/21 03:20:26;;;;;;;1.60;1.60;;;5.00;63.70;;;;;;5048173;28;20256;-63
2023/12/21 03:22:53;;;;;;;1.67;1.67;;;4.80;64.20;;;;;;5036863;28;20203;-64
2023/12/21 03:25:19;;;;;;;1.80;1.70;;;4.90;64.40;;;;;;5045003;28;20230;-64
2023/12/21 03:27:47;;;;;;;1.70;1.60;;;5.00;64.70;;;;;;5042104;28;20244;-64
2023/12/21 03:30:13;;;;;;;1.83;1.73;;;4.90;65.20;;;;;;5045931;28;20224;-65
2023/12/21 03:32:40;;;;;;;1.70;1.60;;;4.90;64.70;;;;;;5050982;28;20252;-65
2023/12/21 03:35:06;;;;;;;1.80;1.70;;;4.90;64.30;;;;;;5041428;28;20262;-64
2023/12/21 03:37:33;;;;;;;1.80;1.80;;;4.90;63.80;;;;;;5044436;28;20209;-62
2023/12/21 03:39:59;;;;;;;1.73;1.70;;;4.90;63.50;;;;;;5044008;28;20577;-63
2023/12/21 03:42:26;;;;;;;1.90;1.80;;;4.90;63.50;;;;;;5042452;28;20250;-64
2023/12/21 03:44:52;;;;;;;1.83;1.70;;;4.90;64.00;;;;;;5050218;28;20331;-64
2023/12/21 03:47:19;;;;;;;1.80;1.70;;;5.00;64.20;;;;;;5046357;28;20238;-64
2023/12/21 03:49:45;;;;;;;2.30;2.20;;;4.90;64.00;;;;;;5044687;28;20205;-65
2023/12/21 03:52:12;;;;;;;1.63;1.63;;;5.00;64.50;;;;;;5038635;28;20257;-65
2023/12/21 03:54:38;;;;;;;1.60;1.60;;;5.00;64.30;;;;;;5049071;28;20233;-65
2023/12/21 03:57:05;;;;;;;1.60;1.60;;;5.00;63.60;;;;;;5036432;28;20238;-65
2023/12/21 03:59:31;;;;;;;1.70;1.70;;;5.00;63.60;;;;;;5050086;28;20202;-64
2023/12/21 04:01:58;;;;;;;1.60;1.60;;;5.10;63.20;;;;;;5047065;28;20613;-64
2023/12/21 04:04:24;;;;;;;1.50;1.50;;;5.10;63.00;;;;;;5039891;28;20240;-64
2023/12/21 04:06:51;;;;;;;1.60;1.50;;;5.10;62.60;;;;;;5041974;28;20655;-64
2023/12/21 04:09:18;;;;;;;2.00;1.93;;;5.10;62.10;;;;;;5039961;28;20213;-64
2023/12/21 04:11:44;;;;;;;1.70;1.70;;;5.20;61.60;;;;;;5041650;28;20262;-64
2023/12/21 04:14:11;;;;;;;1.40;1.40;;;5.20;61.70;;;;;;5043702;28;20229;-64
2023/12/21 04:16:38;;;;;;;1.40;1.40;;;5.30;61.50;;;;;;5038751;28;20241;-64
2023/12/21 04:19:06;;;;;;;1.43;1.43;;;5.30;61.50;;;;;;5044668;28;20213;-64
2023/12/21 04:21:33;;;;;;;1.70;1.70;;;5.30;61.30;;;;;;5043412;28;20203;-64
2023/12/21 04:23:59;;;;;;;1.63;1.60;;;5.40;60.70;;;;;;5047992;28;20234;-64
2023/12/21 04:26:26;;;;;;;1.80;1.70;;;5.40;61.00;;;;;;5040810;28;20268;-64
2023/12/21 04:28:52;;;;;;;1.70;1.70;;;5.30;60.20;;;;;;5041009;28;20238;-64
2023/12/21 04:31:19;;;;;;;1.50;1.50;;;5.30;60.20;;;;;;5040184;28;20596;-64
2023/12/21 04:33:46;;;;;;;1.60;1.60;;;5.40;60.00;;;;;;5038812;28;20226;-64
2023/12/21 04:36:13;;;;;;;1.43;1.40;;;5.40;59.70;;;;;;5042408;28;20640;-64
2023/12/21 04:38:39;;;;;;;1.50;1.50;;;5.40;59.50;;;;;;5044481;28;20264;-64
2023/12/21 04:41:06;;;;;;;1.40;1.40;;;5.50;59.20;;;;;;5047276;28;20207;-64
2023/12/21 04:43:32;;;;;;;1.50;1.50;;;5.60;59.10;;;;;;5044803;28;20206;-63
2023/12/21 04:45:59;;;;;;;1.50;1.50;;;5.50;58.80;;;;;;5048015;28;20638;-64
2023/12/21 04:48:25;;;;;;;1.47;1.47;;;5.60;58.40;;;;;;5040569;28;20234;-64
2023/12/21 04:50:52;;;;;;;1.40;1.40;;;5.60;58.00;;;;;;5038457;28;20253;-64
2023/12/21 04:53:18;;;;;;;1.50;1.40;;;5.60;58.60;;;;;;5040114;28;20248;-64
2023/12/21 04:55:45;;;;;;;1.40;1.40;;;5.60;58.20;;;;;;5041316;28;20259;-64
2023/12/21 04:58:11;;;;;;;2.07;1.40;;;5.60;58.50;;;;;;5046258;28;20584;-64
2023/12/21 05:00:40;;;;;;;1.77;1.67;;;5.70;58.10;;;;;;5040105;28;20230;-64
2023/12/21 05:03:06;;;;;;;1.50;1.50;;;5.60;58.20;;;;;;5042873;28;20233;-64
2023/12/21 05:05:33;;;;;;;1.53;1.50;;;5.70;57.80;;;;;;5050525;28;20233;-64
2023/12/21 05:07:59;;;;;;;1.50;1.50;;;5.70;58.00;;;;;;5038584;28;20418;-64
2023/12/21 05:10:26;;;;;;;1.30;1.30;;;5.70;57.90;;;;;;5039399;28;20239;-63
2023/12/21 05:12:52;;;;;;;1.50;1.50;;;5.70;57.80;;;;;;5042097;28;20238;-63
2023/12/21 05:15:19;;;;;;;1.47;1.43;;;5.70;58.20;;;;;;5050876;28;20295;-64
2023/12/21 05:17:45;;;;;;;1.80;1.70;;;5.70;58.00;;;;;;5041473;28;20210;-64
2023/12/21 05:20:12;;;;;;;1.60;1.50;;;5.70;58.00;;;;;;5043962;28;20198;-64
2023/12/21 05:22:39;;;;;;;1.40;1.40;;;5.70;58.20;;;;;;5041708;28;20237;-63
2023/12/21 05:25:05;;;;;;;1.50;1.50;;;5.70;58.20;;;;;;5041390;28;20692;-64
2023/12/21 05:27:32;;;;;;;1.50;1.50;;;5.70;58.40;;;;;;5040208;28;20223;-64
2023/12/21 05:29:58;;;;;;;1.77;1.63;;;5.70;58.90;;;;;;5042136;28;20657;-64
2023/12/21 05:32:25;;;;;;;1.40;1.40;;;5.80;59.10;;;;;;5032372;28;20254;-63
2023/12/21 05:34:52;;;;;;;1.50;1.50;;;5.70;59.50;;;;;;5045396;28;20257;-64
2023/12/21 05:37:18;;;;;;;1.60;1.60;;;5.70;59.60;;;;;;5045561;28;20584;-64
2023/12/21 05:39:48;;;;;;;1.53;1.50;;;5.70;60.20;;;;;;5037065;28;20610;-64
2023/12/21 05:42:14;;;;;;;1.50;1.50;;;5.70;60.50;;;;;;5039587;28;20807;-64
2023/12/21 05:44:40;;;;;;;1.47;1.37;;;5.70;60.50;;;;;;5048089;28;20232;-64
2023/12/21 05:47:07;;;;;;;1.50;1.50;;;5.70;59.60;;;;;;5043201;28;20669;-64
2023/12/21 05:49:33;;;;;;;1.53;1.50;;;5.80;59.70;;;;;;5046519;28;20230;-64
2023/12/21 05:52:00;;;;;;;1.70;1.70;;;5.80;59.70;;;;;;5046293;28;20222;-64
2023/12/21 05:54:27;;;;;;;1.40;1.40;;;5.80;60.00;;;;;;5050947;28;20236;-64
2023/12/21 05:56:53;;;;;;;1.50;1.50;;;5.80;60.00;;;;;;5049445;28;21397;-64
2023/12/21 05:59:20;;;;;;;1.97;1.87;;;5.90;60.00;;;;;;5048601;28;20201;-64
2023/12/21 06:01:47;;;;;;;1.40;1.40;;;5.90;59.60;;;;;;5046409;28;20208;-64
2023/12/21 06:04:14;;;;;;;1.40;1.40;;;5.90;59.20;;;;;;5041191;28;20667;-64
2023/12/21 06:06:40;;;;;;;1.57;1.50;;;5.90;59.20;;;;;;5045613;28;20242;-64
2023/12/21 06:09:07;;;;;;;1.70;1.60;;;5.90;58.70;;;;;;5045979;28;20210;-64
2023/12/21 06:11:34;;;;;;;1.60;1.53;;;6.00;58.40;;;;;;5052491;28;20267;-64
2023/12/21 06:14:00;;;;;;;1.50;1.50;;;6.00;57.90;;;;;;5043318;28;20741;-64
2023/12/21 06:16:27;;;;;;;1.60;1.60;;;6.10;57.90;;;;;;5049575;28;20218;-64
2023/12/21 06:18:54;;;;;;;1.67;1.60;;;6.10;57.70;;;;;;5045575;28;20271;-63
2023/12/21 06:21:20;;;;;;;1.80;1.70;;;6.10;57.40;;;;;;5044324;28;20238;-64
2023/12/21 06:23:47;;;;;;;1.57;1.47;;;6.10;57.30;;;;;;5044301;28;20206;-64
2023/12/21 06:26:13;;;;;;;1.60;1.50;;;6.10;56.80;;;;;;5041467;28;20242;-64
2023/12/21 06:28:40;;;;;;;1.70;1.60;;;6.20;57.30;;;;;;5042461;28;20572;-64
2023/12/21 06:31:06;;;;;;;1.57;1.57;;;6.20;57.00;;;;;;5042861;28;20285;-64
2023/12/21 06:33:33;;;;;;;1.67;1.60;;;6.20;56.70;;;;;;5036588;28;20681;-64
2023/12/21 06:35:59;;;;;;;1.60;1.50;;;6.30;56.90;;;;;;5037018;28;20226;-63
2023/12/21 06:38:26;;;;;;;1.40;1.40;;;6.30;56.60;;;;;;5040880;28;20630;-63
2023/12/21 06:40:52;;;;;;;1.63;1.53;;;6.20;56.70;;;;;;5050916;28;20233;-63
2023/12/21 06:43:19;;;;;;;1.80;1.73;;;6.40;56.20;;;;;;5047229;28;20757;-63
2023/12/21 06:45:47;;;;;;;1.80;1.70;;;6.30;56.10;;;;;;5042069;28;20288;-63
2023/12/21 06:48:13;;;;;;;1.80;1.70;;;6.40;56.20;;;;;;5045163;28;20293;-63
2023/12/21 06:50:40;;;;;;;1.90;1.80;;;6.30;56.70;;;;;;5044235;28;20672;-63
2023/12/21 06:53:06;;;;;;;1.40;1.40;;;6.30;56.30;;;;;;5024129;28;20226;-63
2023/12/21 06:55:33;;;;;;;1.60;1.50;;;6.40;56.20;;;;;;5040219;28;20265;-63
2023/12/21 06:57:59;;;;;;;1.80;1.70;;;6.40;56.30;;;;;;5043887;28;20236;-63
2023/12/21 07:00:26;;;;;;;1.63;1.60;;;6.40;56.20;;;;;;5041817;28;20277;-62
2023/12/21 07:02:52;;;;;;;1.50;1.50;;;6.40;55.90;;;;;;5043061;28;20230;-62
2023/12/21 07:05:20;;;;;;;1.80;1.70;;;6.40;56.20;;;;;;5047896;28;20261;-64
2023/12/21 07:07:47;;;;;;;1.40;1.40;;;6.40;55.90;;;;;;5044589;28;20211;-62
2023/12/21 07:10:13;;;;;;;1.53;1.50;;;6.50;56.00;;;;;;5045076;28;20255;-64
2023/12/21 07:12:39;;;;;;;1.40;1.40;;;6.40;55.90;;;;;;5048821;28;20273;-62
2023/12/21 07:15:05;;;;;;;1.60;1.50;;;6.50;56.00;;;;;;5051955;28;20250;-65
2023/12/21 07:17:32;;;;;;;1.50;1.50;;;6.50;56.00;;;;;;5052523;28;20242;-64
2023/12/21 07:19:58;;;;;;;1.40;1.40;;;6.50;55.90;;;;;;5052107;28;20712;-64
2023/12/21 07:22:25;;;;;;;1.60;1.50;;;6.50;56.00;;;;;;5043961;28;20221;-65
2023/12/21 07:24:51;;;;;;;1.70;1.60;;;6.50;56.00;;;;;;5043453;28;20231;-64
2023/12/21 07:27:18;;;;;;;1.50;1.50;;;6.60;56.00;;;;;;5047422;28;20203;-64
2023/12/21 07:29:44;;;;;;;1.40;1.40;;;6.60;56.00;;;;;;5050405;28;20287;-65
2023/12/21 07:32:11;;;;;;;1.50;1.50;;;6.70;56.10;;;;;;5025454;28;20224;-64
2023/12/21 07:34:38;;;;;;;1.70;1.60;;;6.70;55.80;;;;;;5038026;28;20236;-65
2023/12/21 07:37:04;;;;;;;1.50;1.50;;;6.60;55.50;;;;;;5041714;28;20246;-64
2023/12/21 07:39:31;;;;;;;1.57;1.57;;;6.70;55.60;;;;;;5041607;28;20786;-64
2023/12/21 07:41:57;;;;;;;1.40;1.40;;;6.70;55.40;;;;;;5047005;28;20245;-63
2023/12/21 07:44:24;;;;;;;1.67;1.60;;;6.70;55.20;;;;;;5043299;28;20200;-64
2023/12/21 07:46:50;;;;;;;1.73;1.63;;;6.80;55.20;;;;;;5049427;28;20277;-63
2023/12/21 07:49:17;;;;;;;1.30;1.30;;;6.80;55.40;;;;;;5040568;28;20231;-64
2023/12/21 07:51:43;;;;;;;1.50;1.40;;;6.80;55.40;;;;;;5050379;28;20650;-64
2023/12/21 07:54:10;;;;;;;1.70;1.60;;;6.80;55.00;;;;;;5043487;28;20296;-69
2023/12/21 07:56:36;;;;;;;1.53;1.43;;;11.40;55.80;;;;;;5043961;28;20258;-65
2023/12/21 07:59:06;;;;;;;1.40;1.40;;;9.90;45.50;;;;;;5051723;28;20255;-64
2023/12/21 08:01:33;;;;;;;2.90;1.50;;;8.10;51.40;;;;;;5052827;28;20212;-64
2023/12/21 08:03:59;;;;;;;1.30;1.30;;;7.60;53.70;;;;;;5052263;28;20213;-66
2023/12/21 08:06:26;;;;;;;1.30;1.30;;;7.40;53.70;;;;;;5046007;28;20241;-65
2023/12/21 08:08:53;;;;;;;1.40;1.30;;;7.20;53.90;;;;;;5041963;28;20245;-65
2023/12/21 08:11:19;;;;;;;3.43;1.57;;;7.20;54.20;;;;;;5039712;28;20279;-65
2023/12/21 08:13:46;;;;;;;1.30;1.30;;;7.10;54.40;;;;;;5049917;28;20587;-65
2023/12/21 08:16:12;;;;;;;1.80;1.70;;;7.10;54.60;;;;;;5047071;28;20300;-66
2023/12/21 08:18:38;;;;;;;2.53;2.33;;;7.20;54.20;;;;;;5040678;28;20201;-66
2023/12/21 08:21:05;;;;;;;1.70;1.60;;;7.20;54.20;;;;;;5052313;28;20258;-65
2023/12/21 08:23:31;;;;;;;1.20;1.20;;;7.20;54.00;;;;;;5052382;28;20222;-65
2023/12/21 08:25:58;;;;;;;1.30;1.30;;;7.20;54.20;;;;;;5033027;28;20224;-65
2023/12/21 08:28:26;;;;;;;1.43;1.37;;;7.30;53.80;;;;;;5041075;28;20277;-64
2023/12/21 08:30:53;;;;;;;1.60;1.50;;;7.20;53.80;;;;;;5048854;28;20287;-65
2023/12/21 08:33:20;;;;;;;1.50;1.40;;;7.20;53.60;;;;;;5043231;28;20310;-67
2023/12/21 08:35:47;;;;;;;2.60;1.60;;;7.30;54.00;;;;;;5027893;28;20232;-70
2023/12/21 08:38:13;;;;;;;1.60;1.20;;;7.30;53.50;;;;;;5042729;28;20676;-64
2023/12/21 08:40:40;;;;;;;1.30;1.30;;;7.30;53.40;;;;;;5044730;28;20219;-73
2023/12/21 08:43:06;;;;;;;1.10;1.10;;;7.30;53.40;;;;;;5043276;28;20552;-72
2023/12/21 08:45:33;;;;;;;1.43;1.40;;;7.30;53.40;;;;;;5045064;28;20738;-71
2023/12/21 08:47:59;;;;;;;1.40;1.40;;;7.40;53.60;;;;;;5041766;28;20227;-68
2023/12/21 08:50:26;;;;;;;1.30;1.20;;;7.40;53.40;;;;;;5047059;28;20211;-64
2023/12/21 08:52:52;;;;;;;1.70;1.60;;;7.50;52.80;;;;;;5041931;28;20289;-64
2023/12/21 08:55:19;;;;;;;1.70;1.47;;;7.50;52.90;;;;;;5049339;28;20258;-63
2023/12/21 08:57:46;;;;;;;1.37;1.37;;;7.50;53.10;;;;;;5044291;28;20264;-64
2023/12/21 09:00:13;;;;;;;1.70;1.60;;;7.50;53.10;;;;;;5015188;28;20249;-64
2023/12/21 09:02:40;;;;;;;1.10;1.10;;;7.50;52.90;;;;;;5038488;28;20239;-64
2023/12/21 09:05:06;;;;;;;1.63;1.53;;;7.50;52.60;;;;;;5036234;28;20237;-66
2023/12/21 09:07:33;;;;;;;1.53;1.43;;;7.50;52.40;;;;;;5041042;28;20212;-65
2023/12/21 09:10:00;;;;;;;1.40;1.33;;;7.50;52.40;;;;;;5038159;28;20326;-64
2023/12/21 09:12:26;;;;;;;1.30;1.30;;;7.50;52.40;;;;;;5044354;28;20226;-65
2023/12/21 09:14:53;;;;;;;2.20;1.40;;;7.60;52.50;;;;;;5044560;28;20224;-65
2023/12/21 09:17:19;;;;;;;1.30;1.30;;;7.60;51.90;;;;;;5040494;28;20281;-65
2023/12/21 09:19:46;;;;;;;1.20;1.20;;;7.60;51.70;;;;;;5029455;28;20924;-65
2023/12/21 09:22:12;;;;;;;1.40;1.40;;;7.60;51.60;;;;;;5021274;28;20233;-65
2023/12/21 09:24:39;;;;;;;1.50;1.40;;;7.60;51.60;;;;;;5043823;28;20205;-65
2023/12/21 09:27:05;;;;;;;1.30;1.30;;;7.70;51.60;;;;;;5037481;28;20255;-65
2023/12/21 09:29:32;;;;;;;2.10;1.60;;;7.70;53.60;;;;;;5041270;28;20207;-69
2023/12/21 09:31:59;;;;;;;1.50;1.40;;;8.40;50.60;;;;;;5036860;28;20236;-65
2023/12/21 09:34:25;;;;;;;2.60;1.60;;;7.90;50.80;;;;;;5046325;28;20209;-67
2023/12/21 09:36:53;;;;;;;1.57;1.30;;;7.90;51.20;;;;;;5029023;28;20312;-66
2023/12/21 09:39:19;;;;;;;1.30;1.30;;;7.80;51.90;;;;;;5039285;28;20205;-66
2023/12/21 09:41:46;;;;;;;1.47;1.33;;;7.80;50.90;;;;;;5033144;28;20204;-66
2023/12/21 09:44:16;;;;;;;1.50;1.40;;;7.80;50.70;;;;;;5042079;28;20614;-67
2023/12/21 09:46:43;;;;;;;1.40;1.30;;;7.80;50.60;;;;;;5029829;28;20605;-66
2023/12/21 09:49:10;;;;;;;1.60;1.50;;;7.90;51.20;;;;;;5044464;28;20205;-66
2023/12/21 09:51:36;;;;;;;1.60;1.50;;;7.90;50.90;;;;;;5038030;28;20213;-66
2023/12/21 09:54:04;;;;;;;1.73;1.47;;;7.80;51.20;;;;;;5041908;28;20209;-66
2023/12/21 09:56:30;;;;;;;1.53;1.40;;;7.80;51.10;;;;;;5041163;28;20228;-66
2023/12/21 09:58:58;;;;;;;1.77;1.43;;;7.80;51.10;;;;;;5042913;28;20217;-67
2023/12/21 10:01:24;;;;;;;1.63;1.53;;;7.80;51.30;;;;;;5039427;28;20654;-66
2023/12/21 10:03:51;;;;;;;2.07;1.57;;;7.80;51.50;;;;;;5039449;28;20209;-66
2023/12/21 10:06:17;;;;;;;1.30;1.30;;;7.90;51.50;;;;;;5027897;28;20245;-64
2023/12/21 10:08:44;;;;;;;6.23;1.70;;;7.80;51.80;;;;;;5034459;28;20262;-66
2023/12/21 10:11:11;;;;;;;1.70;1.60;;;7.90;51.60;;;;;;5035989;28;20218;-65
2023/12/21 10:13:37;;;;;;;1.50;1.50;;;7.90;52.10;;;;;;5041598;28;20232;-71
2023/12/21 10:16:04;;;;;;;3.23;1.63;;;7.80;52.00;;;;;;5038621;28;20306;-63
2023/12/21 10:18:30;;;;;;;1.40;1.40;;;8.00;51.60;;;;;;5047344;28;20212;-66
2023/12/21 10:20:57;;;;;;;1.57;1.50;;;8.00;51.70;;;;;;5053705;28;20228;-64
2023/12/21 10:23:24;;;;;;;1.50;1.50;;;8.00;51.90;;;;;;5047977;28;20206;-64
2023/12/21 10:25:50;;;;;;;1.57;1.47;;;8.00;52.00;;;;;;5044517;28;20316;-64
2023/12/21 10:28:17;;;;;;;1.70;1.60;;;8.00;52.20;;;;;;5055270;28;20217;-65
2023/12/21 10:30:43;;;;;;;1.63;1.50;;;8.00;52.20;;;;;;5046635;28;20208;-65
2023/12/21 10:33:12;;;;;;;1.90;1.80;;;7.90;52.10;;;;;;5034429;28;20768;-64
2023/12/21 10:35:38;;;;;;;1.47;1.40;;;8.00;52.40;;;;;;5049026;28;20237;-65
2023/12/21 10:38:05;;;;;;;1.70;1.60;;;8.00;52.00;;;;;;5051280;28;20209;-64
2023/12/21 10:40:32;;;;;;;1.60;1.50;;;7.90;52.30;;;;;;5042940;28;20252;-65
2023/12/21 10:42:58;;;;;;;1.60;1.50;;;8.00;52.50;;;;;;5053838;28;20259;-64
2023/12/21 10:45:25;;;;;;;1.53;1.50;;;8.00;52.10;;;;;;5045780;28;20233;-65
2023/12/21 10:47:52;;;;;;;3.20;1.70;;;8.00;52.30;;;;;;5043516;28;20209;-65
2023/12/21 10:50:18;;;;;;;1.50;1.40;;;8.00;52.10;;;;;;5039262;28;20272;-64
2023/12/21 10:52:46;;;;;;;2.60;1.87;;;8.00;52.20;;;;;;5050118;28;20245;-63
2023/12/21 10:55:12;;;;;;;1.80;1.70;;;8.10;52.00;;;;;;5048873;28;20249;-64
2023/12/21 10:57:39;;;;;;;2.00;1.50;;;8.10;52.10;;;;;;5043018;28;20276;-64
2023/12/21 11:00:11;;;;;;;1.63;1.53;;;8.10;51.90;;;;;;5054122;28;20241;-64
2023/12/21 11:02:37;;;;;;;1.50;1.50;;;8.20;51.80;;;;;;5051719;28;20232;-64
2023/12/21 11:05:04;;;;;;;2.10;1.40;;;8.20;51.50;;;;;;5046517;28;20281;-64
2023/12/21 11:07:31;;;;;;;1.90;1.67;;;8.20;51.50;;;;;;5026459;28;20339;-63
2023/12/21 11:09:58;;;;;;;1.70;1.63;;;8.20;51.70;;;;;;5044694;28;20671;-64
2023/12/21 11:12:25;;;;;;;1.57;1.50;;;8.20;51.30;;;;;;5046625;28;20226;-64
2023/12/21 11:14:51;;;;;;;1.40;1.40;;;8.20;51.40;;;;;;5038272;28;20929;-63
2023/12/21 11:17:18;;;;;;;1.60;1.60;;;8.20;51.60;;;;;;5030422;28;20217;-64
2023/12/21 11:19:44;;;;;;;3.23;1.60;;;8.30;51.60;;;;;;5039938;28;20594;-63
2023/12/21 11:22:11;;;;;;;1.60;1.50;;;8.30;51.40;;;;;;5044779;28;20616;-64
2023/12/21 11:24:37;;;;;;;1.50;1.50;;;8.30;51.50;;;;;;5026613;28;20260;-65
2023/12/21 11:27:04;;;;;;;1.60;1.50;;;8.30;51.60;;;;;;5051269;28;20757;-65
2023/12/21 11:29:31;;;;;;;1.50;1.40;;;8.30;51.60;;;;;;5011515;28;20282;-64
2023/12/21 11:31:58;;;;;;;1.73;1.63;;;8.30;51.50;;;;;;5018517;28;20214;-65
2023/12/21 11:34:24;;;;;;;1.50;1.40;;;8.30;51.90;;;;;;5007840;28;20611;-65
2023/12/21 11:36:57;;;;;;;1.60;1.50;;;8.30;51.90;;;;;;5029372;28;20265;-65
2023/12/21 11:39:23;;;;;;;1.43;1.33;;;8.30;52.10;;;;;;5025397;28;20210;-64
2023/12/21 11:41:50;;;;;;;1.50;1.40;;;8.30;51.90;;;;;;5022585;28;20263;-65
2023/12/21 11:44:17;;;;;;;1.57;1.40;;;8.30;52.10;;;;;;5013130;28;20296;-64
2023/12/21 11:46:44;;;;;;;2.23;1.70;;;8.30;52.20;;;;;;5023160;28;20253;-65
2023/12/21 11:49:10;;;;;;;1.60;1.50;;;8.30;52.10;;;;;;5033458;28;20210;-66
2023/12/21 11:51:37;;;;;;;1.40;1.40;;;8.30;52.40;;;;;;5032098;28;20303;-66
2023/12/21 11:54:03;;;;;;;1.60;1.50;;;8.30;52.60;;;;;;5031244;28;20238;-66
2023/12/21 11:56:30;;;;;;;2.27;1.50;;;8.30;52.20;;;;;;5026293;28;20261;-65
2023/12/21 11:58:56;;;;;;;2.17;1.60;;;8.30;52.50;;;;;;5036232;28;20267;-65
2023/12/21 12:01:23;;;;;;;2.83;1.80;;;8.40;52.40;;;;;;5025645;28;20234;-65
2023/12/21 12:03:49;;;;;;;1.60;1.50;;;8.40;52.30;;;;;;5031587;28;20297;-65
2023/12/21 12:06:16;;;;;;;1.40;1.40;;;8.40;52.30;;;;;;5012004;28;20266;-65
2023/12/21 12:08:43;;;;;;;1.50;1.40;;;8.40;52.10;;;;;;5028500;28;20205;-64
2023/12/21 12:11:09;;;;;;;1.43;1.40;;;8.40;52.90;;;;;;5031109;28;20719;-64
2023/12/21 12:13:36;;;;;;;1.43;1.43;;;8.40;52.30;;;;;;5031241;28;20262;-65
2023/12/21 12:16:03;;;;;;;1.60;1.50;;;8.40;51.90;;;;;;5034656;28;20237;-64
2023/12/21 12:18:30;;;;;;;1.53;1.40;;;8.40;52.10;;;;;;5034767;28;20574;-64
2023/12/21 12:21:00;;;;;;;1.30;1.30;;;8.40;52.20;;;;;;5025293;28;20202;-65
2023/12/21 12:23:27;;;;;;;1.50;1.40;;;8.40;52.20;;;;;;5029459;28;20209;-66
2023/12/21 12:25:53;;;;;;;1.73;1.53;;;8.40;52.40;;;;;;5021931;28;20276;-65
2023/12/21 12:28:22;;;;;;;1.60;1.50;;;8.50;52.70;;;;;;5027708;28;20210;-66
2023/12/21 12:30:49;;;;;;;1.60;1.50;;;8.50;52.90;;;;;;5013009;28;20217;-66
2023/12/21 12:33:15;;;;;;;1.50;1.40;;;8.40;53.10;;;;;;5010113;28;20312;-66
2023/12/21 12:35:43;;;;;;;1.50;1.40;;;8.40;53.00;;;;;;5030923;28;20252;-65
2023/12/21 12:38:09;;;;;;;2.30;1.70;;;8.50;53.20;;;;;;5015964;28;20681;-66
2023/12/21 12:40:36;;;;;;;2.60;1.60;;;8.50;53.20;;;;;;5029409;28;20738;-67
2023/12/21 12:43:05;;;;;;;2.97;1.77;;;8.50;53.10;;;;;;5018588;28;20206;-66
2023/12/21 12:45:33;;;;;;;2.77;2.57;;;8.50;53.20;;;;;;5023827;28;20233;-65
2023/12/21 12:47:59;;;;;;;4.67;2.53;;;8.50;52.70;;;;;;5029626;28;20762;-65
2023/12/21 12:50:26;;;;;;;1.50;1.40;;;8.60;53.10;;;;;;5029936;28;20556;-65
2023/12/21 12:52:53;;;;;;;1.57;1.43;;;8.60;52.90;;;;;;5029863;28;20230;-65